Accueil
METAR-TAF:

METAR-TAF

Aéroports :

Aéroport international de Yap

Yap, Micronésie

latitude: 09-29N, longitude: 138-05E, altitude: 28 m

Observation

Le bulletin a été fait il y a 33 minutes, à 22:53 UTC
Vent 7 kt de nord
Température 30°C
Humidité 79%
Pression 1009 hPa
Visibilité: 19.3 km
Quelques nuages à une hauteur de 1600 ft
Nuages fragmentés à une hauteur de 30000 ft

METAR: PTYA 212253Z 36007KT 12SM FEW016 BKN300 30/26 A2980 RMK SLP093 T02950258

Heure: 09:26 (23:26 UTC)

Prévision

Le bulletin a été fait il y a 6 heures et 6 minutes, à 17:20 UTC
Prévision valable du 21 à 18 UTC au 22 à 18 UTC
Vent 9 kt de est/nord-est
Visibilité: 10 km
Nuages épars à une hauteur de 1600 ft
Nuages épars à une hauteur de 12000 ft
averses à proximité

TAF: PTYA 211720Z 2118/2218 07009KT P6SM VCSH SCT016 SCT120

Observations et prévisions météorologiques de plus de 4000 aéroports (messages METAR et TAF).

Les stations disponibles sont représentées par des disques jaunes et rouges sur la carte.

Passer la souris dessus pour voir le nom de la station.

Cliquer dessus pour voir les observations et prévisions météorologiques.

Pour changer de carte: cliquez sur les boutons verts avec une croix noire pour zoomer, sur le bouton vert avec un tiret pour effectuer un zoom arrière, ou sur les flèches vertes pour les cartes adjacentes.


METAR-TAF: